Time;durP1;ratioP1;P1;durP2;ratioP2;P2;SDS_P1;SDS_P2;PMS_P1;PMS_P2;Temp;Humidity;BMP_temperature;BMP_pressure;BME280_temperature;BME280_humidity;BME280_pressure;Samples;Min_cycle;Max_cycle;Signal;HPM_P1;HPM_P2
2024/01/03 00:09:11;;;;;;;4.50;3.10;;;;;;;4.62;99.47;96546.95;435238;1250;108456;-40
2024/01/03 00:29:58;;;;;;;5.70;3.70;;;;;;;4.64;99.83;96521.79;435316;1253;107581;-40
2024/01/03 00:40:23;;;;;;;5.20;3.30;;;;;;;4.68;99.93;96520.20;435270;1250;99278;-39
2024/01/03 00:50:29;;;;;;;6.70;5.00;;;;;;;4.72;99.98;96516.95;435120;1251;467505;-40
2024/01/03 01:00:36;;;;;;;4.20;3.30;;;;;;;4.76;100.00;96502.98;435349;1254;107048;-40
2024/01/03 01:10:43;;;;;;;4.20;3.10;;;;;;;4.79;100.00;96484.75;435420;1250;99247;-41
2024/01/03 01:20:50;;;;;;;4.90;3.50;;;;;;;4.84;100.00;96469.13;435375;1256;109936;-40
2024/01/03 01:30:57;;;;;;;3.10;2.70;;;;;;;4.88;100.00;96456.13;435357;1255;99311;-40
2024/01/03 01:41:05;;;;;;;4.40;2.60;;;;;;;4.92;100.00;96440.66;435252;1250;111447;-40
2024/01/03 01:51:11;;;;;;;5.90;5.30;;;;;;;4.94;100.00;96425.50;435150;1251;107495;-40
2024/01/03 02:01:19;;;;;;;4.10;3.60;;;;;;;4.97;100.00;96412.17;435406;1254;99215;-40
2024/01/03 02:11:26;;;;;;;3.80;2.50;;;;;;;4.99;100.00;96404.92;435296;1250;108337;-42
2024/01/03 02:21:33;;;;;;;4.50;2.30;;;;;;;5.01;100.00;96397.35;435238;1264;99237;-40
2024/01/03 02:41:47;;;;;;;4.60;2.60;;;;;;;5.05;100.00;96377.05;436111;1250;108337;-40
2024/01/03 02:51:55;;;;;;;6.10;4.00;;;;;;;5.06;100.00;96368.73;435333;1251;99346;-39
2024/01/03 03:02:02;;;;;;;3.70;2.60;;;;;;;5.11;100.00;96364.52;435340;1250;108416;-38
2024/01/03 03:12:09;;;;;;;3.20;2.30;;;;;;;5.14;100.00;96356.99;435274;1254;98830;-39
2024/01/03 03:22:16;;;;;;;2.30;2.10;;;;;;;5.17;100.00;96349.79;435310;1254;111416;-39
2024/01/03 03:32:21;;;;;;;2.60;2.40;;;;;;;5.22;100.00;96347.64;435354;1254;109344;-39
2024/01/03 03:42:28;;;;;;;2.50;2.30;;;;;;;5.28;100.00;96342.49;435385;1253;99218;-39
2024/01/03 04:02:40;;;;;;;2.00;1.90;;;;;;;5.33;100.00;96322.61;435531;1251;99307;-39
2024/01/03 04:12:48;;;;;;;4.20;3.00;;;;;;;5.39;100.00;96325.31;435551;1250;111529;-40
2024/01/03 04:22:55;;;;;;;2.60;1.80;;;;;;;5.45;100.00;96327.73;435327;1250;108145;-39
2024/01/03 04:33:01;;;;;;;3.10;1.90;;;;;;;5.51;100.00;96326.41;435432;1251;98010;-39
2024/01/03 04:43:08;;;;;;;2.50;2.00;;;;;;;5.55;100.00;96325.01;435449;1253;108273;-39
2024/01/03 05:03:21;;;;;;;2.30;1.10;;;;;;;5.62;100.00;96317.16;435471;1249;111676;-40
2024/01/03 05:13:29;;;;;;;5.00;1.70;;;;;;;5.69;100.00;96316.95;435388;1253;107995;-40
2024/01/03 05:23:37;;;;;;;1.10;1.00;;;;;;;5.77;100.00;96311.85;435374;1263;98524;-40
2024/01/03 05:33:44;;;;;;;2.70;1.50;;;;;;;5.86;100.00;96309.05;435313;1249;107274;-39
2024/01/03 05:43:50;;;;;;;5.20;3.70;;;;;;;5.95;100.00;96313.13;435510;1250;99215;-39
2024/01/03 05:53:57;;;;;;;4.40;3.20;;;;;;;5.95;100.00;96317.05;435435;1250;111989;-39
2024/01/03 06:14:10;;;;;;;2.80;1.70;;;;;;;5.99;100.00;96333.49;435564;1251;98878;-39
2024/01/03 06:24:16;;;;;;;2.40;1.70;;;;;;;6.05;100.00;96340.90;435290;1253;107458;-39
2024/01/03 06:34:23;;;;;;;4.60;4.20;;;;;;;6.08;100.00;96352.73;435438;1253;99240;-39
2024/01/03 06:44:30;;;;;;;3.40;2.60;;;;;;;6.06;100.00;96357.54;435301;1263;110344;-39
2024/01/03 06:54:37;;;;;;;3.40;2.50;;;;;;;6.09;100.00;96378.96;435328;1254;109271;-38
2024/01/03 07:04:43;;;;;;;1.90;1.70;;;;;;;6.24;100.00;96388.38;435399;1257;99234;-39
2024/01/03 07:14:50;;;;;;;5.00;1.80;;;;;;;6.37;100.00;96385.52;435384;1253;108449;-39
2024/01/03 07:24:56;;;;;;;5.20;3.30;;;;;;;6.47;100.00;96387.14;435395;1253;99294;-40
2024/01/03 07:35:03;;;;;;;4.20;2.10;;;;;;;6.61;100.00;96399.73;435452;1264;110877;-39
2024/01/03 07:55:14;;;;;;;5.10;2.40;;;;;;;6.82;100.00;96418.02;435568;1253;99223;-39
2024/01/03 08:05:22;;;;;;;4.90;2.80;;;;;;;6.91;100.00;96426.82;435363;1263;110789;-40
2024/01/03 08:15:29;;;;;;;7.90;6.30;;;;;;;7.02;100.00;96416.73;435542;1253;98577;-40
2024/01/03 08:25:37;;;;;;;6.50;4.30;;;;;;;7.13;100.00;96421.61;435327;1254;111879;-39
2024/01/03 08:35:44;;;;;;;7.30;4.20;;;;;;;7.23;100.00;96433.06;435337;1257;107865;-39
2024/01/03 08:45:50;;;;;;;8.80;4.40;;;;;;;7.26;100.00;96443.52;435303;1251;99243;-38
2024/01/03 08:55:57;;;;;;;7.60;4.80;;;;;;;7.41;100.00;96456.42;435389;1253;107641;-39
2024/01/03 09:06:05;;;;;;;6.30;4.20;;;;;;;7.68;100.00;96455.86;435446;1253;99243;-39
2024/01/03 09:16:13;;;;;;;13.40;5.80;;;;;;;7.73;100.00;96470.37;435422;1255;111053;-41
2024/01/03 09:26:22;;;;;;;5.50;3.40;;;;;;;7.79;100.00;96481.20;435274;1263;108454;-38
2024/01/03 09:46:37;;;;;;;5.80;4.90;;;;;;;8.13;100.00;96507.17;435217;1255;108403;-39
2024/01/03 10:06:59;;;;;;;5.60;2.80;;;;;;;8.28;100.00;96513.11;435470;1251;113908;-39
2024/01/03 10:17:09;;;;;;;6.90;3.90;;;;;;;8.41;100.00;96522.32;435547;1254;108023;-39
2024/01/03 10:27:17;;;;;;;10.20;3.30;;;;;;;8.56;100.00;96515.92;435469;1251;99285;-40
2024/01/03 10:57:41;;;;;;;4.60;2.40;;;;;;;8.93;100.00;96508.19;435436;1253;110859;-38
2024/01/03 11:07:50;;;;;;;4.80;2.50;;;;;;;9.18;100.00;96498.16;435363;1258;107650;-39
2024/01/03 11:17:56;;;;;;;;;;;;;;;9.32;100.00;96491.92;435341;1264;99352;-39
2024/01/03 11:28:36;;;;;;;2.70;1.60;;;;;;;9.24;100.00;96485.25;435480;1250;108684;-39
2024/01/03 11:38:43;;;;;;;3.60;2.40;;;;;;;9.17;100.00;96479.39;435459;1253;99243;-39
2024/01/03 12:19:07;;;;;;;5.80;3.50;;;;;;;9.33;99.20;96495.48;435586;1251;107423;-39
2024/01/03 12:39:20;;;;;;;9.10;3.70;;;;;;;9.30;98.74;96499.27;435635;1250;111994;-38
2024/01/03 12:49:26;;;;;;;11.00;4.40;;;;;;;9.22;98.51;96502.56;435391;1250;403009;-40
2024/01/03 12:59:32;;;;;;;8.70;4.60;;;;;;;9.25;97.97;96502.19;435578;1254;99244;-40
2024/01/03 13:19:46;;;;;;;8.00;3.30;;;;;;;9.49;97.63;96498.77;435566;1250;99225;-40
2024/01/03 13:29:53;;;;;;;6.40;4.30;;;;;;;9.45;97.15;96505.17;435548;1254;111947;-40
2024/01/03 13:40:01;;;;;;;5.00;1.90;;;;;;;9.43;96.44;96508.34;435466;1250;107016;-40
2024/01/03 13:50:09;;;;;;;7.20;2.40;;;;;;;9.35;95.08;96507.77;435672;1250;99237;-40
2024/01/03 14:00:17;;;;;;;5.80;1.80;;;;;;;9.22;94.07;96510.37;435453;1253;107762;-40
2024/01/03 14:10:24;;;;;;;4.00;1.40;;;;;;;9.14;94.13;96515.99;435433;1249;97883;-39
2024/01/03 14:50:49;;;;;;;22.30;12.00;;;;;;;8.78;92.93;96515.16;435502;1253;108748;-39
2024/01/03 15:11:01;;;;;;;31.60;11.90;;;;;;;8.53;92.76;96528.41;435578;1250;112376;-39
2024/01/03 15:21:08;;;;;;;24.40;8.30;;;;;;;8.41;92.60;96524.11;435659;1250;108823;-41
2024/01/03 15:31:16;;;;;;;29.40;13.30;;;;;;;8.27;92.86;96524.06;435508;1253;99237;-40
2024/01/03 15:41:21;;;;;;;20.40;12.20;;;;;;;8.06;92.98;96537.66;435637;1253;111098;-38
2024/01/03 15:51:28;;;;;;;18.60;7.80;;;;;;;8.01;93.08;96530.29;435677;1253;99237;-40
2024/01/03 16:01:36;;;;;;;12.80;6.00;;;;;;;7.94;93.13;96530.04;435568;1253;110731;-39
2024/01/03 16:11:43;;;;;;;12.00;6.50;;;;;;;7.84;93.35;96532.41;435703;1253;106529;-41
2024/01/03 16:21:49;;;;;;;13.40;6.60;;;;;;;7.73;93.65;96536.77;435769;1250;99214;-40
2024/01/03 16:31:59;;;;;;;11.50;3.80;;;;;;;7.65;93.83;96537.30;435843;1250;108612;-39
2024/01/03 16:42:07;;;;;;;11.40;6.40;;;;;;;7.61;94.11;96544.92;435677;1253;98280;-40
2024/01/03 16:52:15;;;;;;;7.70;3.70;;;;;;;7.51;94.41;96550.67;435621;1253;111907;-39
2024/01/03 17:02:22;;;;;;;12.30;6.30;;;;;;;7.39;94.72;96536.52;435725;1249;107233;-41
2024/01/03 17:22:37;;;;;;;20.10;9.60;;;;;;;7.19;95.33;96507.86;435505;1253;107349;-39
2024/01/03 17:42:51;;;;;;;16.40;8.40;;;;;;;7.09;95.89;96504.31;435643;1253;111402;-39
2024/01/03 17:52:57;;;;;;;16.50;7.10;;;;;;;7.07;96.32;96501.52;435687;1250;108297;-40
2024/01/03 18:03:04;;;;;;;12.90;7.70;;;;;;;7.04;96.64;96505.65;435520;1253;99220;-39
2024/01/03 18:33:23;;;;;;;15.80;8.50;;;;;;;7.04;97.35;96505.39;435594;1253;112390;-40
2024/01/03 18:43:29;;;;;;;16.90;9.50;;;;;;;7.05;97.55;96501.87;435592;1250;108572;-40
2024/01/03 18:53:35;;;;;;;18.80;7.60;;;;;;;7.04;97.57;96501.71;435573;1253;99247;-40
2024/01/03 19:03:42;;;;;;;21.40;9.50;;;;;;;7.04;97.96;96497.77;435603;1253;108070;-40
2024/01/03 19:23:56;;;;;;;24.00;10.00;;;;;;;7.01;98.11;96488.10;435655;1253;112577;-39
2024/01/03 19:34:02;;;;;;;20.30;9.50;;;;;;;7.04;98.11;96489.64;435606;1250;108083;-39
2024/01/03 19:54:17;;;;;;;11.80;6.30;;;;;;;7.04;98.56;96493.00;435533;1251;107410;-40
2024/01/03 20:04:28;;;;;;;15.40;7.30;;;;;;;7.08;98.68;96497.69;435635;1253;101631;-40
2024/01/03 20:14:35;;;;;;;27.70;11.60;;;;;;;7.09;98.92;96500.95;435734;1253;110997;-40
2024/01/03 20:24:42;;;;;;;19.50;10.50;;;;;;;7.08;98.82;96500.89;435543;1251;107685;-40
2024/01/03 20:34:47;;;;;;;20.10;8.90;;;;;;;7.06;98.76;96501.73;435650;1253;99215;-40
2024/01/03 20:44:55;;;;;;;20.30;8.30;;;;;;;6.95;98.68;96504.54;435638;1253;106984;-40
2024/01/03 20:55:00;;;;;;;14.00;7.80;;;;;;;6.93;98.73;96499.49;435473;1263;99863;-40
2024/01/03 21:15:13;;;;;;;14.20;7.80;;;;;;;6.83;98.66;96485.88;435369;1263;107467;-39
2024/01/03 21:25:20;;;;;;;16.00;7.00;;;;;;;6.82;98.67;96485.73;435504;1251;99236;-40
2024/01/03 21:35:28;;;;;;;15.70;8.40;;;;;;;6.81;98.54;96484.67;435631;1253;108708;-40
2024/01/03 21:45:36;;;;;;;13.70;7.30;;;;;;;6.72;98.49;96474.88;435617;1253;99243;-40
2024/01/03 21:55:43;;;;;;;16.30;7.70;;;;;;;6.62;98.23;96475.48;435664;1250;110863;-40
2024/01/03 22:05:49;;;;;;;16.70;7.30;;;;;;;6.45;98.25;96473.09;435580;1253;107645;-41
2024/01/03 22:15:57;;;;;;;15.20;7.00;;;;;;;6.33;98.28;96471.07;435625;1253;99311;-39
2024/01/03 22:26:04;;;;;;;15.80;7.30;;;;;;;6.39;98.40;96465.23;435512;1251;107927;-41
2024/01/03 22:36:14;;;;;;;10.20;5.40;;;;;;;6.47;98.53;96463.08;435471;1253;98572;-40
2024/01/03 22:46:21;;;;;;;9.60;5.00;;;;;;;6.54;98.56;96460.84;435794;1250;112045;-42
2024/01/03 22:56:29;;;;;;;7.20;3.40;;;;;;;6.59;98.41;96454.55;435418;1251;109485;-40
2024/01/03 23:16:43;;;;;;;5.00;3.20;;;;;;;6.47;98.37;96446.42;435453;1253;107380;-40
2024/01/03 23:26:50;;;;;;;5.50;2.90;;;;;;;6.54;98.16;96440.04;435540;1250;98820;-40
2024/01/03 23:36:57;;;;;;;6.60;3.70;;;;;;;6.63;98.18;96439.77;435332;1253;112378;-40
2024/01/03 23:47:05;;;;;;;7.70;4.50;;;;;;;6.62;98.04;96436.77;435424;1250;108675;-40
2024/01/03 23:57:12;;;;;;;11.20;3.00;;;;;;;6.56;97.97;96422.40;435454;1253;99189;-40
